Data for 11/01/2015

Time Sea-Level Adjusted Pressure Absolute Pressure Temperature Relative Humidity Dew Point   
(mb) (inHg) (mb) (inHg) (C) (F) (%) (C) (F)
00:05 1010 29.83 839 24.78 14.3 57.7 28 -3.7 25.3
00:10 1010 29.83 839 24.78 14.4 57.9 28 -4 24.9
00:15 1010 29.83 839 24.78 14.5 58.2 28 -3.7 25.3
00:20 1010 29.83 839 24.78 14.4 57.9 28 -3.8 25.1
00:25 1010 29.83 839 24.78 14.3 57.8 28 -3.7 25.4
00:30 1010 29.83 839 24.78 14.2 57.5 29 -3.6 25.4
00:35 1010 29.83 839 24.78 14 57.3 30 -3.2 26.3
00:40 1010 29.83 839 24.78 13.8 56.9 31 -2.9 26.7
00:45 1010 29.83 839 24.78 13.8 56.8 31 -3.1 26.5
00:50 1010 29.83 839 24.78 13.9 57.1 31 -3 26.6
00:55 1010 29.83 839 24.78 13.8 56.8 30 -3.2 26.3
02:00 1010 29.83 839 24.78 13.6 56.6 31 -3 26.7
02:05 1010 29.83 839 24.78 13.6 56.6 31 -3.1 26.5
02:10 1010 29.83 839 24.78 13.5 56.3 31 -3.1 26.4
02:15 1010 29.83 839 24.78 13.7 56.7 30 -3.3 26
02:20 1010 29.83 839 24.78 13.8 56.8 30 -3.2 26.3
02:25 1010 29.83 839 24.78 13.6 56.5 31 -3.3 26.1
02:30 1010 29.83 839 24.78 13.5 56.2 31 -3.1 26.3
02:35 1010 29.83 839 24.78 13.2 55.8 31 -3.3 26
02:40 1010 29.83 839 24.78 13.2 55.8 31 -3.3 26.1
02:45 1010 29.83 839 24.78 13.2 55.7 31 -3.3 26
02:50 1010 29.83 839 24.78 13.2 55.7 31 -3.6 25.5
02:55 1010 29.83 839 24.78 13.3 55.9 30 -3.7 25.4
03:00 1010 29.83 839 24.78 13.3 56 31 -3.2 26.3
03:05 1010 29.83 839 24.78 13 55.3 32 -3.2 26.3
03:10 1010 29.83 839 24.78 12.7 54.9 32 -3.4 26
03:15 1010 29.83 839 24.78 12.7 54.8 32 -3.4 25.8
03:20 1010 29.83 839 24.78 12.7 54.8 31 -4 24.8
03:25 1010 29.83 839 24.78 13.1 55.5 30 -4.1 24.6
03:30 1010 29.83 839 24.78 13.5 56.4 29 -3.9 25
03:35 1010 29.83 839 24.78 13.5 56.4 31 -3.4 25.9
03:40 1010 29.83 839 24.78 13.2 55.7 31 -3.4 25.8
03:45 1010 29.83 839 24.78 13 55.4 32 -3.4 25.9
03:50 1010 29.83 839 24.78 12.9 55.1 32 -3.6 25.6
03:55 1010 29.83 839 24.78 12.9 55.2 32 -3.4 25.9
04:00 1010 29.83 839 24.78 13 55.3 31 -3.5 25.7
04:05 1010 29.83 839 24.78 13.1 55.5 32 -3 26.6
04:10 1010 29.83 839 24.78 12.8 55.1 33 -3.1 26.4
04:15 1010 29.83 839 24.78 12.9 55.2 32 -3.3 26
04:20 1010 29.83 839 24.78 14 57.2 29 -3.7 25.3
04:25 1010 29.83 839 24.78 14.6 58.4 28 -3.6 25.4
04:30 1010 29.83 839 24.78 14.6 58.3 29 -3.3 26.1
04:35 1010 29.83 839 24.78 14.5 58.1 30 -3 26.6
04:40 1010 29.83 840 24.81 14.3 57.7 30 -2.8 27
04:45 1010 29.83 840 24.81 14.1 57.4 31 -2.6 27.4
04:50 1010 29.83 839 24.78 13.9 57 32 -2.5 27.6
04:55 1010 29.83 839 24.78 13.7 56.7 32 -2.5 27.6
05:00 1010 29.83 840 24.81 13.6 56.6 33 -2.4 27.7
05:05 1011 29.85 840 24.81 13.6 56.4 33 -2.4 27.8
05:10 1011 29.85 840 24.81 13.1 55.6 42 0.5 32.9
05:15 1011 29.85 840 24.81 12 53.6 47 1.2 34.1
05:20 1011 29.85 840 24.81 11.4 52.5 54 2.5 36.5
05:25 1011 29.85 840 24.81 10.6 51.2 57 2.4 36.4
05:30 1012 29.88 841 24.83 10.2 50.3 59 2.6 36.6
05:35 1012 29.88 841 24.83 9.7 49.5 60 2.4 36.3
05:40 1012 29.88 841 24.83 9.4 48.9 62 2.6 36.6
05:45 1012 29.88 841 24.83 9.2 48.6 63 2.5 36.5
05:50 1012 29.88 841 24.83 9 48.2 64 2.6 36.6
05:55 1012 29.88 841 24.83 8.7 47.7 66 2.9 37.2
06:00 1012 29.88 841 24.83 8.3 47 69 3 37.3
06:05 1012 29.88 841 24.83 8.1 46.5 70 3 37.4
06:10 1012 29.88 842 24.86 7.9 46.2 71 3 37.4
06:15 1012 29.88 842 24.86 7.8 46 72 3 37.4
06:20 1012 29.88 842 24.86 7.7 45.9 73 3.1 37.6
06:25 1012 29.88 842 24.86 7.6 45.8 72 3 37.4
06:30 1013 29.91 842 24.86 7.6 45.7 73 3 37.4
06:35 1013 29.91 842 24.86 7.6 45.6 73 3 37.4
06:40 1013 29.91 842 24.86 7.5 45.5 74 3.1 37.6
06:45 1013 29.91 842 24.86 7.2 44.9 77 3.3 38
06:50 1013 29.91 842 24.86 6.8 44.3 79 3.4 38.1
06:55 1013 29.91 842 24.86 6.7 44.1 81 3.6 38.6
07:00 1013 29.91 842 24.86 6.7 44.1 80 3.6 38.4
07:05 1013 29.91 842 24.86 6.8 44.2 79 3.5 38.2
07:10 1013 29.91 843 24.89 6.9 44.4 78 3.2 37.8
07:15 1013 29.91 843 24.89 7 44.6 78 3.4 38.2
07:20 1014 29.94 843 24.89 7 44.6 79 3.5 38.4
07:25 1014 29.94 843 24.89 7 44.6 80 3.8 38.8
07:30 1014 29.94 843 24.89 7 44.5 82 4.1 39.4
07:35 1014 29.94 843 24.89 6.9 44.4 83 4.2 39.6
07:40 1014 29.94 843 24.89 6.8 44.2 85 4.4 39.9
07:45 1014 29.94 843 24.89 6.6 43.9 85 4.3 39.8
07:50 1014 29.94 843 24.89 6.4 43.6 86 4.2 39.6
07:55 1014 29.94 843 24.89 6.3 43.3 86 4.2 39.5
08:00 1014 29.94 843 24.89 6.1 43.1 88 4.3 39.7
08:05 1014 29.94 843 24.89 5.9 42.6 89 4.2 39.6
08:10 1013 29.91 842 24.86 5.7 42.3 89 4 39.3
08:15 1013 29.91 843 24.89 5.7 42.3 88 3.8 38.9
08:20 1013 29.91 843 24.89 5.8 42.5 87 3.8 38.8
08:25 1013 29.91 842 24.86 6 42.7 85 3.6 38.5
08:30 1013 29.91 842 24.86 6 42.8 84 3.4 38.2
08:35 1013 29.91 842 24.86 6 42.8 83 3.3 37.9
08:40 1013 29.91 842 24.86 6.1 42.9 81 3.1 37.5
08:45 1013 29.91 842 24.86 6.2 43.1 79 2.7 36.9
08:50 1013 29.91 842 24.86 6.5 43.6 77 2.8 37
08:55 1013 29.91 842 24.86 6.7 44.1 75 2.6 36.7
09:00 1013 29.91 842 24.86 6.9 44.4 75 2.8 37
09:05 1013 29.91 842 24.86 6.7 44.1 76 2.8 37
09:10 1013 29.91 843 24.89 6.7 44 76 2.8 37
09:15 1013 29.91 843 24.89 6.6 43.9 77 2.8 37.1
09:20 1013 29.91 843 24.89 6.6 43.9 75 2.6 36.6
09:25 1013 29.91 843 24.89 6.7 44.1 79 3.3 37.9
09:30 1014 29.94 843 24.89 6.5 43.7 75 2.3 36.2
09:35 1014 29.94 843 24.89 6.7 44.1 79 3.3 37.9
09:40 1013 29.91 843 24.89 6.9 44.3 75 2.8 37
09:45 1013 29.91 843 24.89 7 44.5 77 3.2 37.7
09:50 1014 29.94 843 24.89 7.2 45 72 2.5 36.5
09:55 1014 29.94 843 24.89 7.7 45.8 73 3.1 37.7
10:00 1014 29.94 843 24.89 7.6 45.7 74 3.3 37.9
10:05 1014 29.94 843 24.89 7.6 45.7 72 2.9 37.3
10:10 1014 29.94 843 24.89 7.8 46 73 3.2 37.7
10:15 1014 29.94 843 24.89 7.9 46.2 74 3.6 38.4
10:20 1014 29.94 843 24.89 7.8 46.1 72 3.1 37.7
10:25 1014 29.94 843 24.89 7.9 46.3 72 3.2 37.7
10:30 1014 29.94 843 24.89 8.1 46.5 73 3.5 38.2
10:35 1014 29.94 843 24.89 8.2 46.7 74 3.9 39
10:40 1014 29.94 843 24.89 8.3 46.9 73 3.7 38.7
10:45 1014 29.94 843 24.89 8.4 47.2 74 4.1 39.4
10:50 1014 29.94 843 24.89 8.6 47.6 77 4.8 40.7
10:55 1014 29.94 843 24.89 8.5 47.3 79 5.1 41.2
11:00 1014 29.94 843 24.89 8.4 47 78 4.8 40.6
11:05 1014 29.94 843 24.89 8.4 47.1 77 4.7 40.5
11:10 1014 29.94 843 24.89 9.2 48.6 75 5 41
11:15 1014 29.94 843 24.89 10.3 50.5 67 4.4 40
11:20 1014 29.94 843 24.89 10.7 51.3 68 5.1 41.1
11:25 1014 29.94 843 24.89 10.9 51.6 63 4.2 39.5
11:30 1014 29.94 843 24.89 11.5 52.8 59 3.9 39
11:35 1014 29.94 843 24.89 11.6 52.9 62 4.7 40.4
11:40 1014 29.94 843 24.89 11.4 52.5 56 3 37.5
11:45 1014 29.94 843 24.89 10.5 50.9 56 2.1 35.9
11:50 1014 29.94 843 24.89 10.3 50.6 56 1.9 35.4
11:55 1013 29.91 843 24.89 10.6 51 55 2.1 35.7
12:00 1013 29.91 843 24.89 11.1 51.9 54 2.1 35.7
12:05 1013 29.91 843 24.89 11.5 52.7 53 2.2 36
12:10 1013 29.91 843 24.89 11.5 52.7 53 2.2 36
12:15 1013 29.91 843 24.89 11.6 52.8 50 1.5 34.7
12:20 1013 29.91 843 24.89 11.6 52.9 50 1.5 34.7
12:25 1013 29.91 843 24.89 12 53.5 50 1.9 35.5
12:30 1013 29.91 843 24.89 11.9 53.5 50 2 35.6
12:35 1013 29.91 843 24.89 12 53.6 51 2.3 36.2
12:40 1013 29.91 842 24.86 12.1 53.8 52 2.6 36.6
12:45 1013 29.91 842 24.86 12.5 54.6 48 1.9 35.5
12:50 1013 29.91 842 24.86 12.3 54.2 47 1.3 34.3
12:55 1013 29.91 842 24.86 12.3 54.1 45 0.9 33.6
13:00 1013 29.91 842 24.86 12.5 54.4 44 0.6 33.1
13:05 1013 29.91 842 24.86 12.4 54.4 44 0.7 33.3
13:10 1013 29.91 842 24.86 12.4 54.3 44 0.5 32.9
13:15 1013 29.91 842 24.86 12.2 53.9 45 0.8 33.5
13:20 1013 29.91 842 24.86 12.5 54.4 46 1.1 34
13:25 1013 29.91 842 24.86 12.6 54.7 46 1.3 34.4
13:30 1013 29.91 842 24.86 12.7 54.9 45 1.1 34
13:35 1013 29.91 842 24.86 13 55.4 45 1.3 34.4
13:40 1013 29.91 842 24.86 13.6 56.6 41 0.9 33.6
13:45 1013 29.91 842 24.86 13.6 56.4 44 1.6 34.9
13:50 1013 29.91 842 24.86 14 57.2 40 0.8 33.5
13:55 1013 29.91 842 24.86 13.9 56.9 41 0.9 33.7
14:00 1013 29.91 842 24.86 13.8 56.8 39 0.1 32.2
14:05 1012 29.88 842 24.86 13.4 56 39 -0.3 31.5
14:10 1012 29.88 842 24.86 13.4 56.1 37 -0.9 30.3
14:15 1012 29.88 841 24.83 13.6 56.4 35 -1.5 29.3
14:20 1012 29.88 841 24.83 13.8 56.9 36 -1 30.2
14:25 1012 29.88 841 24.83 13.5 56.3 36 -1.2 29.8
14:30 1012 29.88 841 24.83 13.8 56.8 35 -1.4 29.5
14:35 1012 29.88 841 24.83 13.8 56.9 36 -1.1 30.1
14:40 1012 29.88 841 24.83 14.2 57.5 33 -1.7 28.9
14:45 1012 29.88 841 24.83 13.8 56.8 33 -2 28.4
14:50 1012 29.88 841 24.83 13.6 56.4 32 -2.6 27.3
14:55 1012 29.88 841 24.83 13.4 56.1 33 -2.4 27.7
15:00 1012 29.88 841 24.83 13.4 56.1 32 -2.9 26.8
15:05 1012 29.88 841 24.83 13.5 56.3 33 -2.4 27.7
15:10 1012 29.88 841 24.83 13.7 56.7 34 -1.9 28.6
15:15 1012 29.88 841 24.83 13.9 57 32 -2.4 27.7
15:20 1012 29.88 841 24.83 14.3 57.8 31 -2.7 27.2
15:25 1012 29.88 841 24.83 14.2 57.5 31 -2.5 27.6
15:30 1012 29.88 841 24.83 14 57.2 32 -2.4 27.7
15:35 1012 29.88 841 24.83 14 57.1 30 -3.2 26.3
15:40 1012 29.88 841 24.83 13.6 56.5 29 -3.9 25
15:45 1012 29.88 841 24.83 13.5 56.2 29 -4.1 24.7
15:50 1012 29.88 841 24.83 13.3 56 28 -4.9 23.1
15:55 1012 29.88 841 24.83 13.3 55.9 29 -4.5 23.9
16:00 1012 29.88 841 24.83 13.2 55.8 29 -4.4 24
16:05 1012 29.88 841 24.83 13.3 55.9 30 -3.7 25.3
16:10 1012 29.88 841 24.83 13.2 55.8 32 -3 26.7
16:15 1012 29.88 841 24.83 13.2 55.8 32 -2.9 26.9
16:20 1012 29.88 841 24.83 13 55.4 30 -4.3 24.3
16:25 1011 29.85 841 24.83 12.9 55.1 30 -4.2 24.5
16:30 1011 29.85 841 24.83 12.8 55.1 30 -4.1 24.7
16:35 1011 29.85 841 24.83 13.1 55.6 30 -4.2 24.5
16:40 1011 29.85 841 24.83 13.7 56.6 30 -3.7 25.3
16:45 1011 29.85 841 24.83 13.8 56.8 30 -3.5 25.7
16:50 1011 29.85 841 24.83 13.7 56.6 29 -3.8 25.2
16:55 1011 29.85 841 24.83 13.8 56.9 29 -3.7 25.4
17:00 1011 29.85 840 24.81 13.7 56.7 31 -3.1 26.4
17:05 1011 29.85 840 24.81 13.5 56.3 31 -3.1 26.4
17:10 1011 29.85 840 24.81 13.5 56.4 31 -3 26.6
17:15 1011 29.85 840 24.81 13.4 56.1 32 -2.7 27.1
17:20 1011 29.85 840 24.81 13.5 56.3 33 -2.5 27.5
17:25 1011 29.85 840 24.81 13.2 55.8 33 -2.5 27.5
17:30 1011 29.85 840 24.81 12.7 54.9 35 -2.3 27.9
17:35 1011 29.85 840 24.81 12.4 54.4 36 -2 28.3
17:40 1011 29.85 840 24.81 12.1 53.7 37 -2.1 28.2
17:45 1011 29.85 840 24.81 11.7 53 40 -1.4 29.5
17:50 1011 29.85 840 24.81 11.3 52.4 41 -1.4 29.5
17:55 1011 29.85 840 24.81 11.1 52 41 -1.5 29.3
18:00 1011 29.85 840 24.81 11.2 52.2 40 -1.9 28.6
18:05 1011 29.85 840 24.81 11.1 52 42 -1.1 30
18:10 1011 29.85 840 24.81 10.4 50.8 44 -1.3 29.7
18:15 1011 29.85 840 24.81 10.4 50.7 44 -1.4 29.4
18:20 1011 29.85 840 24.81 10.4 50.7 44 -1.3 29.6
18:25 1011 29.85 840 24.81 10.3 50.6 44 -1.3 29.7
18:30 1011 29.85 840 24.81 10.2 50.3 45 -1.2 29.8
18:35 1011 29.85 840 24.81 10.1 50.1 45 -1.4 29.5
18:40 1011 29.85 840 24.81 9.8 49.6 46 -1.2 29.8
18:45 1011 29.85 840 24.81 9.5 49.1 45 -1.8 28.7
18:50 1011 29.85 840 24.81 9.6 49.2 43 -2.5 27.6
18:55 1011 29.85 840 24.81 10 49.9 37 -3.9 25
19:00 1011 29.85 840 24.81 10.5 50.9 35 -4.4 24.1
19:05 1011 29.85 841 24.83 10.9 51.6 33 -4.9 23.2
19:10 1011 29.85 841 24.83 10.9 51.6 32 -5.2 22.7
19:15 1011 29.85 841 24.83 11 51.7 32 -5.2 22.6
19:20 1012 29.88 841 24.83 11.2 52.1 30 -5.6 21.9
19:25 1012 29.88 841 24.83 11.2 52.1 33 -4.3 24.3
19:30 1012 29.88 841 24.83 10.4 50.6 46 -0.8 30.6
19:35 1012 29.88 842 24.86 9.3 48.7 50 -0.6 30.9
19:40 1012 29.88 842 24.86 8.8 47.9 49 -1.2 29.9
19:45 1012 29.88 842 24.86 8.5 47.4 49 -1.6 29.1
19:50 1013 29.91 842 24.86 8.3 47 49 -1.8 28.8
19:55 1013 29.91 842 24.86 8 46.4 50 -1.7 28.9
20:00 1013 29.91 842 24.86 7.9 46.2 51 -1.5 29.2
20:05 1013 29.91 842 24.86 7.8 46 52 -1.5 29.3
20:10 1013 29.91 842 24.86 7.6 45.7 53 -1.4 29.6
20:15 1013 29.91 842 24.86 7.5 45.6 54 -1.3 29.7
20:20 1013 29.91 842 24.86 7.5 45.4 54 -1.2 29.8
20:25 1013 29.91 842 24.86 7.3 45.2 54 -1.2 29.8
20:30 1013 29.91 843 24.89 7.2 45 55 -1.2 29.8
20:35 1014 29.94 843 24.89 7.1 44.7 56 -1 30.1
20:40 1014 29.94 843 24.89 6.6 43.9 60 -0.6 30.9
20:45 1014 29.94 843 24.89 6.4 43.5 60 -0.8 30.6
20:50 1014 29.94 843 24.89 6.3 43.4 61 -0.7 30.8
20:55 1014 29.94 843 24.89 6.2 43.1 61 -0.8 30.6
21:00 1014 29.94 843 24.89 5.9 42.7 62 -0.8 30.5
21:05 1014 29.94 843 24.89 5.8 42.5 63 -0.8 30.6
21:10 1014 29.94 843 24.89 5.6 42 64 -0.7 30.7
21:15 1013 29.91 843 24.89 5.6 42.1 62 -1.2 29.9
21:20 1013 29.91 843 24.89 5.9 42.6 61 -1.1 30.1
21:25 1013 29.91 843 24.89 5.8 42.5 62 -0.9 30.3
21:30 1013 29.91 842 24.86 5.5 42 63 -1 30.2
21:35 1013 29.91 842 24.86 5.5 41.9 62 -1.1 30
21:40 1013 29.91 843 24.89 5.5 42 62 -1.2 29.8
21:45 1013 29.91 842 24.86 5.6 42 62 -1.1 30
21:50 1013 29.91 843 24.89 5.5 41.9 62 -1.2 29.9
21:55 1013 29.91 843 24.89 5.5 41.8 63 -1 30.2
22:00 1013 29.91 843 24.89 5.3 41.6 66 -0.4 31.2
22:05 1013 29.91 843 24.89 5.2 41.4 65 -0.8 30.5
22:10 1013 29.91 843 24.89 5.3 41.5 66 -0.6 30.9
22:15 1013 29.91 843 24.89 5.1 41.2 67 -0.6 31
22:20 1013 29.91 843 24.89 5.1 41.2 66 -0.7 30.8
22:25 1013 29.91 843 24.89 5 41 67 -0.6 30.8
22:30 1013 29.91 843 24.89 5 41 66 -0.8 30.6
22:35 1014 29.94 843 24.89 5.1 41.1 66 -0.7 30.8
22:40 1014 29.94 843 24.89 5.1 41.1 67 -0.6 30.9
22:45 1014 29.94 843 24.89 5.3 41.5 65 -0.7 30.8
22:50 1014 29.94 843 24.89 5.1 41.1 67 -0.5 31.1
22:55 1014 29.94 843 24.89 4.9 40.9 67 -0.6 31
23:00 1014 29.94 843 24.89 4.9 40.8 67 -0.7 30.8
23:05 1014 29.94 843 24.89 4.7 40.5 67 -0.8 30.5
23:10 1014 29.94 843 24.89 4.7 40.4 68 -0.8 30.6
23:15 1014 29.94 843 24.89 4.6 40.3 67 -0.9 30.3
23:20 1014 29.94 843 24.89 4.7 40.5 67 -0.8 30.6
23:25 1014 29.94 843 24.89 4.6 40.3 68 -0.8 30.5
23:30 1014 29.94 843 24.89 4.6 40.3 68 -0.9 30.4
23:35 1014 29.94 843 24.89 4.6 40.3 68 -0.8 30.6
23:40 1014 29.94 843 24.89 4.5 40 70 -0.4 31.2
23:45 1014 29.94 843 24.89 4.2 39.5 71 -0.6 31
23:50 1014 29.94 843 24.89 4.2 39.5 70 -0.7 30.7
23:55 1014 29.94 843 24.89 4.5 40.1 69 -0.8 30.6
24:00 1014 29.94 843 24.89 4.5 40.1 69 -0.6 30.9